Time;durP1;ratioP1;P1;durP2;ratioP2;P2;SDS_P1;SDS_P2;PMS_P1;PMS_P2;Temp;Humidity;BMP_temperature;BMP_pressure;BME280_temperature;BME280_humidity;BME280_pressure;Samples;Min_cycle;Max_cycle;Signal;HPM_P1;HPM_P2
2021/07/01 00:00:52;;;;;;;5.07;2.45;;;;;;;16.86;nan;100018.03;5023160;28;20080;-77
2021/07/01 00:03:17;;;;;;;3.15;2.10;;;;;;;16.83;nan;100017.28;5031576;28;20021;-77
2021/07/01 00:05:43;;;;;;;4.75;2.55;;;;;;;16.74;nan;100030.94;5024341;28;20065;-77
2021/07/01 00:08:09;;;;;;;5.47;2.58;;;;;;;16.67;nan;100033.00;5022971;28;20536;-77
2021/07/01 00:10:35;;;;;;;6.25;2.53;;;;;;;16.60;nan;100021.69;5025196;28;20087;-77
2021/07/01 00:13:00;;;;;;;6.03;2.78;;;;;;;16.59;nan;100027.09;5024463;28;20113;-77
2021/07/01 00:15:29;;;;;;;6.53;3.20;;;;;;;16.55;nan;100023.66;5022560;28;20030;-77
2021/07/01 00:17:54;;;;;;;6.72;3.00;;;;;;;16.52;nan;100026.44;5021969;28;20448;-76
2021/07/01 00:20:21;;;;;;;5.07;2.22;;;;;;;16.46;nan;100029.38;5023994;28;20029;-76
2021/07/01 00:22:47;;;;;;;3.55;2.00;;;;;;;16.39;nan;100034.03;5025366;28;20025;-77
2021/07/01 00:25:13;;;;;;;7.47;2.88;;;;;;;16.34;nan;100025.34;5022599;28;20392;-77
2021/07/01 00:27:39;;;;;;;4.60;1.73;;;;;;;16.29;nan;100029.13;5022556;28;20037;-77
2021/07/01 00:30:07;;;;;;;4.22;1.77;;;;;;;16.25;nan;100030.19;5025179;28;20068;-77
2021/07/01 00:32:33;;;;;;;6.07;1.67;;;;;;;16.19;nan;100029.47;5022989;28;20038;-76
2021/07/01 00:34:58;;;;;;;5.63;1.58;;;;;;;16.16;nan;100032.22;5021965;28;20489;-77
2021/07/01 00:37:24;;;;;;;7.85;1.98;;;;;;;16.08;nan;100018.34;5040341;28;20049;-77
2021/07/01 00:39:49;;;;;;;4.70;2.15;;;;;;;16.09;nan;100014.78;5022669;28;20026;-77
2021/07/01 00:42:14;;;;;;;6.65;1.83;;;;;;;16.04;nan;100022.06;5023874;28;20045;-77
2021/07/01 00:44:40;;;;;;;3.78;1.45;;;;;;;16.05;nan;100021.13;5036489;28;20124;-76
2021/07/01 00:47:05;;;;;;;2.42;1.23;;;;;;;16.03;nan;100025.63;5023720;28;20036;-76
2021/07/01 00:49:31;;;;;;;3.50;1.40;;;;;;;15.99;nan;100030.22;5023010;28;20042;-76
2021/07/01 00:51:56;;;;;;;8.25;1.80;;;;;;;15.95;nan;100028.56;5022666;28;20033;-76
2021/07/01 00:54:22;;;;;;;5.78;1.80;;;;;;;15.96;nan;100034.78;5024468;28;20033;-76
2021/07/01 00:56:47;;;;;;;6.70;1.63;;;;;;;15.94;nan;100026.84;5022622;28;20038;-76
2021/07/01 00:59:13;;;;;;;4.22;1.92;;;;;;;16.03;nan;100032.75;5020592;28;20088;-77
2021/07/01 01:01:38;;;;;;;4.43;2.10;;;;;;;16.11;nan;100034.22;5024570;28;20443;-77
2021/07/01 01:04:06;;;;;;;7.88;3.03;;;;;;;16.10;nan;100031.59;5033880;28;20500;-77
2021/07/01 01:06:32;;;;;;;3.17;1.75;;;;;;;16.13;nan;100032.34;5022054;28;20030;-77
2021/07/01 01:08:59;;;;;;;6.70;1.75;;;;;;;16.18;nan;100030.41;5025099;28;20399;-76
2021/07/01 01:11:27;;;;;;;4.80;1.95;;;;;;;16.30;nan;100039.72;5025926;28;20030;-77
2021/07/01 01:14:04;;;;;;;5.20;1.70;;;;;;;16.33;nan;100034.28;5036968;28;20467;-77
2021/07/01 01:16:43;;;;;;;6.70;1.90;;;;;;;16.38;nan;100036.78;5020415;28;20222;-77
2021/07/01 01:19:09;;;;;;;6.55;1.90;;;;;;;16.48;nan;100026.63;5022905;28;20508;-77
2021/07/01 01:21:36;;;;;;;6.18;1.90;;;;;;;16.50;nan;100019.44;5034899;28;20026;-76
2021/07/01 01:24:04;;;;;;;4.10;2.08;;;;;;;16.44;nan;100026.75;5024009;28;20029;-77
2021/07/01 01:26:29;;;;;;;5.63;2.00;;;;;;;16.46;nan;100026.69;5026984;28;20106;-77
2021/07/01 01:28:55;;;;;;;5.05;1.90;;;;;;;16.55;nan;100022.81;5021307;28;20033;-77
2021/07/01 01:31:22;;;;;;;7.80;2.33;;;;;;;16.60;nan;100024.34;5035785;28;20036;-77
2021/07/01 01:33:53;;;;;;;4.07;1.83;;;;;;;16.65;nan;100027.72;5025092;28;20033;-76
2021/07/01 01:36:19;;;;;;;6.18;2.70;;;;;;;16.63;nan;100031.34;5021500;28;20037;-77
2021/07/01 01:38:47;;;;;;;7.13;2.70;;;;;;;16.57;nan;100026.28;5023934;28;20174;-77
2021/07/01 01:41:33;;;;;;;4.85;1.92;;;;;;;16.47;nan;100030.22;5036843;28;20512;-77
2021/07/01 01:43:59;;;;;;;4.50;2.30;;;;;;;16.35;nan;100020.94;5021077;28;20079;-77
2021/07/01 01:46:34;;;;;;;7.72;2.25;;;;;;;16.19;nan;100013.50;5035234;28;20036;-77
2021/07/01 01:49:00;;;;;;;6.97;2.20;;;;;;;16.11;nan;100020.91;5037746;28;20415;-77
2021/07/01 01:51:26;;;;;;;5.80;2.80;;;;;;;16.08;nan;100015.69;5035393;28;20037;-77
2021/07/01 01:53:57;;;;;;;6.55;2.70;;;;;;;16.01;nan;100016.84;5023391;28;20496;-77
2021/07/01 01:56:23;;;;;;;6.57;2.90;;;;;;;15.97;nan;100016.09;5021440;28;20037;-77
2021/07/01 01:58:49;;;;;;;7.75;2.55;;;;;;;15.93;nan;100013.63;5035416;28;20655;-77
2021/07/01 02:01:49;;;;;;;3.75;2.42;;;;;;;15.82;nan;100013.09;5022339;28;20049;-77
2021/07/01 02:04:16;;;;;;;7.57;2.53;;;;;;;15.76;nan;100001.75;5020651;28;20496;-77
2021/07/01 02:06:44;;;;;;;5.57;2.40;;;;;;;15.69;nan;100005.59;5036424;28;20522;-76
2021/07/01 02:09:13;;;;;;;8.80;2.75;;;;;;;15.67;nan;99998.56;5019663;28;20052;-76
2021/07/01 02:11:46;;;;;;;5.43;2.45;;;;;;;15.65;nan;100009.22;5036352;28;20500;-77
2021/07/01 02:14:17;;;;;;;8.75;2.70;;;;;;;15.61;nan;100002.28;5020162;28;20033;-77
2021/07/01 02:16:55;;;;;;;5.75;2.60;;;;;;;15.52;nan;99997.28;5022018;28;20416;-76
2021/07/01 02:19:22;;;;;;;6.82;2.53;;;;;;;15.49;nan;99994.75;5019229;28;20030;-76
2021/07/01 02:21:48;;;;;;;5.70;2.70;;;;;;;15.48;nan;99990.31;5021562;28;20502;-76
2021/07/01 02:24:14;;;;;;;8.35;3.10;;;;;;;15.40;nan;99989.72;5033589;28;20095;-77
2021/07/01 02:26:39;;;;;;;6.85;3.75;;;;;;;15.40;nan;99989.72;5022998;28;20083;-77
2021/07/01 02:29:05;;;;;;;6.43;2.92;;;;;;;15.34;nan;99983.69;5019053;28;20037;-77
2021/07/01 02:31:32;;;;;;;5.93;2.70;;;;;;;15.39;nan;99985.34;5020495;28;20036;-76
2021/07/01 02:33:58;;;;;;;10.10;3.67;;;;;;;15.44;nan;99978.06;5038026;28;20033;-77
2021/07/01 02:36:43;;;;;;;8.70;2.83;;;;;;;15.47;nan;99989.47;5022803;28;20051;-76
2021/07/01 02:39:31;;;;;;;5.20;2.55;;;;;;;15.33;nan;99989.94;5022911;28;20029;-77
2021/07/01 02:41:57;;;;;;;4.85;2.40;;;;;;;15.38;nan;99983.59;5035984;28;20515;-76
2021/07/01 02:44:22;;;;;;;6.13;3.03;;;;;;;15.42;nan;99993.22;5019549;28;20065;-77
2021/07/01 02:47:08;;;;;;;6.35;2.35;;;;;;;15.53;nan;99983.06;5021866;28;20041;-77
2021/07/01 02:49:34;;;;;;;6.45;2.22;;;;;;;15.67;nan;99994.09;5035393;28;20050;-77
2021/07/01 02:52:11;;;;;;;5.53;1.98;;;;;;;15.81;nan;99992.75;5019888;28;20415;-76
2021/07/01 02:54:36;;;;;;;6.40;1.95;;;;;;;15.87;nan;99992.53;5022420;28;20036;-77
2021/07/01 02:57:02;;;;;;;7.35;3.83;;;;;;;16.00;nan;99989.34;5019148;28;20038;-77
2021/07/01 02:59:29;;;;;;;8.10;3.13;;;;;;;16.15;nan;99990.56;5019700;28;20053;-77
2021/07/01 03:02:09;;;;;;;5.93;1.88;;;;;;;16.10;nan;99989.88;5036538;28;20041;-77
2021/07/01 03:04:47;;;;;;;7.13;1.90;;;;;;;16.26;nan;99989.31;5022104;28;20029;-77
2021/07/01 03:07:13;;;;;;;5.57;1.80;;;;;;;16.42;nan;99998.44;5019994;28;20047;-77
2021/07/01 03:09:38;;;;;;;5.80;1.80;;;;;;;16.44;nan;99996.59;5025219;28;20037;-77
2021/07/01 03:12:04;;;;;;;6.88;1.98;;;;;;;16.42;nan;99987.78;5021172;28;20395;-77
2021/07/01 03:14:31;;;;;;;4.68;2.10;;;;;;;16.44;nan;99988.59;5019631;28;20029;-77
2021/07/01 03:16:56;;;;;;;4.63;1.92;;;;;;;16.48;nan;99995.56;5022302;28;20037;-77
2021/07/01 03:19:21;;;;;;;5.78;1.85;;;;;;;16.49;nan;99985.75;5019847;28;20026;-77
2021/07/01 03:22:05;;;;;;;19.73;5.25;;;;;;;16.49;nan;99991.94;5021627;28;20080;-77
2021/07/01 03:24:33;;;;;;;21.33;6.68;;;;;;;16.62;nan;99982.53;5025455;28;20030;-76
2021/07/01 03:27:03;;;;;;;6.55;2.53;;;;;;;16.70;nan;99981.38;5043855;28;20553;-77
2021/07/01 03:29:31;;;;;;;17.88;3.47;;;;;;;16.62;nan;99982.53;5039448;28;20432;-77
2021/07/01 03:31:57;;;;;;;9.18;3.05;;;;;;;16.47;nan;99983.16;5023161;28;20549;-77
2021/07/01 03:34:22;;;;;;;10.13;3.03;;;;;;;16.52;nan;99986.50;5041317;28;20037;-77
2021/07/01 03:36:48;;;;;;;6.68;2.00;;;;;;;16.62;nan;99981.69;5039131;28;20507;-77
2021/07/01 03:39:31;;;;;;;4.35;1.60;;;;;;;16.67;nan;99978.84;5023749;28;20045;-77
2021/07/01 03:42:02;;;;;;;4.30;1.95;;;;;;;16.71;nan;99981.28;5023216;28;20041;-76
2021/07/01 03:44:28;;;;;;;4.65;1.70;;;;;;;16.73;nan;99979.44;5028709;28;20080;-77
2021/07/01 03:46:53;;;;;;;5.85;2.25;;;;;;;16.69;nan;99976.97;5024244;28;20037;-76
2021/07/01 03:49:19;;;;;;;5.47;2.00;;;;;;;16.81;nan;99976.50;5024989;28;20045;-77
2021/07/01 03:52:05;;;;;;;5.75;2.00;;;;;;;16.91;nan;99980.53;5025134;28;20046;-77
2021/07/01 03:54:33;;;;;;;5.13;2.00;;;;;;;16.85;nan;99972.81;5021636;28;20037;-77
2021/07/01 03:57:04;;;;;;;8.63;2.70;;;;;;;16.81;nan;99981.84;5023029;28;20044;-77
2021/07/01 03:59:41;;;;;;;6.72;2.35;;;;;;;16.92;nan;99984.06;5038952;28;20061;-77
2021/07/01 04:02:24;;;;;;;5.60;2.05;;;;;;;16.94;nan;99976.88;5023686;28;20057;-77
2021/07/01 04:04:52;;;;;;;6.25;2.63;;;;;;;17.00;nan;99977.50;5022413;28;20107;-77
2021/07/01 04:07:18;;;;;;;3.50;2.35;;;;;;;17.02;nan;99975.63;5037166;28;20065;-76
2021/07/01 04:09:44;;;;;;;5.63;2.25;;;;;;;17.05;nan;99978.16;5030811;28;20504;-77
2021/07/01 04:12:38;;;;;;;4.68;2.55;;;;;;;17.02;nan;99986.28;5037612;28;20045;-77
2021/07/01 04:15:22;;;;;;;5.47;2.97;;;;;;;17.00;nan;99985.50;5024457;28;20060;-77
2021/07/01 04:18:10;;;;;;;9.73;3.90;;;;;;;17.03;nan;99982.69;5024419;28;20103;-77
2021/07/01 04:20:54;;;;;;;5.15;2.95;;;;;;;17.13;nan;99984.97;5025082;28;20419;-77
2021/07/01 04:23:38;;;;;;;4.75;3.50;;;;;;;17.08;nan;99986.06;5024565;28;20447;-77
2021/07/01 04:26:22;;;;;;;4.95;2.97;;;;;;;17.11;nan;99984.16;5024082;28;20128;-76
2021/07/01 04:28:48;;;;;;;5.80;3.55;;;;;;;17.11;nan;99989.50;5021209;28;20045;-77
2021/07/01 04:31:14;;;;;;;8.07;4.30;;;;;;;17.04;nan;99984.44;5023403;28;20044;-76
2021/07/01 04:33:47;;;;;;;5.95;3.45;;;;;;;17.07;nan;99989.63;5039997;28;20517;-76
2021/07/01 04:36:13;;;;;;;5.72;4.03;;;;;;;17.02;nan;99980.94;5021023;28;20038;-76
2021/07/01 04:38:39;;;;;;;10.52;4.25;;;;;;;17.08;nan;99978.06;5022664;28;20491;-76
2021/07/01 04:41:05;;;;;;;6.28;4.18;;;;;;;17.06;nan;99979.03;5036644;28;20025;-76
2021/07/01 04:43:32;;;;;;;8.52;5.05;;;;;;;17.07;nan;99986.97;5028702;28;20594;-76
2021/07/01 04:45:57;;;;;;;6.35;4.85;;;;;;;17.14;nan;99984.91;5032063;28;20080;-76
2021/07/01 04:48:23;;;;;;;6.35;4.22;;;;;;;17.29;nan;99991.38;5047149;28;20034;-76
2021/07/01 04:50:49;;;;;;;10.00;5.45;;;;;;;17.34;nan;99992.06;5033774;28;20515;-77
2021/07/01 04:53:43;;;;;;;7.90;4.93;;;;;;;17.38;nan;99990.16;5031064;28;20258;-77
2021/07/01 04:56:44;;;;;;;7.25;4.95;;;;;;;17.45;nan;99996.97;4990510;28;20056;-76
2021/07/01 04:59:18;;;;;;;7.18;5.47;;;;;;;17.49;nan;99996.75;5035480;28;20491;-76
2021/07/01 05:02:02;;;;;;;7.82;5.05;;;;;;;17.54;nan;99996.53;5024102;28;20122;-77
2021/07/01 05:04:46;;;;;;;7.97;6.25;;;;;;;17.64;nan;99994.34;5023576;28;20060;-77
2021/07/01 05:07:12;;;;;;;8.98;5.50;;;;;;;17.71;nan;99990.47;5020790;28;20567;-76
2021/07/01 05:09:41;;;;;;;6.28;5.03;;;;;;;17.74;nan;100001.88;5022515;28;20072;-77
2021/07/01 05:12:23;;;;;;;9.13;6.03;;;;;;;17.83;nan;100007.78;5037830;28;20044;-77
2021/07/01 05:14:49;;;;;;;8.10;6.38;;;;;;;17.89;nan;100008.41;5021142;28;20041;-77
2021/07/01 05:17:14;;;;;;;7.28;6.00;;;;;;;17.95;nan;100008.09;5036070;28;20033;-76
2021/07/01 05:19:40;;;;;;;9.75;6.13;;;;;;;17.96;nan;100006.28;5022844;28;20037;-77
2021/07/01 05:22:09;;;;;;;11.25;6.93;;;;;;;18.01;nan;100009.63;5035325;28;20030;-76
2021/07/01 05:24:53;;;;;;;10.00;6.00;;;;;;;17.99;nan;100013.31;5022972;28;20111;-77
2021/07/01 05:27:37;;;;;;;8.05;6.35;;;;;;;18.09;nan;100006.63;5023313;28;20072;-76
2021/07/01 05:30:32;;;;;;;8.63;7.28;;;;;;;18.23;nan;100009.50;5011987;28;20056;-77
2021/07/01 05:33:16;;;;;;;9.02;7.20;;;;;;;18.20;nan;100017.66;5024047;28;20053;-76
2021/07/01 05:35:47;;;;;;;20.90;9.75;;;;;;;18.27;nan;100019.13;5037460;28;20033;-77
2021/07/01 05:38:13;;;;;;;19.90;9.60;;;;;;;18.34;nan;100019.72;5020448;28;20041;-76
2021/07/01 05:40:39;;;;;;;16.23;9.32;;;;;;;18.38;nan;100014.13;5036332;28;20400;-77
2021/07/01 05:43:04;;;;;;;11.63;7.95;;;;;;;18.64;nan;100020.06;5022964;28;20037;-76
2021/07/01 05:45:32;;;;;;;11.68;8.40;;;;;;;18.82;nan;100024.56;5001728;28;20560;-77
2021/07/01 05:47:57;;;;;;;11.23;7.97;;;;;;;18.79;nan;100024.72;5023752;28;20037;-77
2021/07/01 05:50:23;;;;;;;10.27;7.68;;;;;;;18.77;nan;100023.06;5022026;28;20034;-77
2021/07/01 05:53:00;;;;;;;9.38;7.72;;;;;;;18.75;nan;100027.59;5020651;28;20041;-77
2021/07/01 05:55:25;;;;;;;11.75;9.35;;;;;;;18.77;nan;100031.06;5037126;28;20038;-77
2021/07/01 05:57:51;;;;;;;10.15;7.97;;;;;;;18.62;nan;100020.13;5021637;28;20032;-76
2021/07/01 06:00:18;;;;;;;10.45;8.77;;;;;;;18.50;nan;100026.06;5031001;28;20108;-77
2021/07/01 06:02:48;;;;;;;8.85;7.95;;;;;;;18.42;nan;100027.34;5029227;28;20083;-77
2021/07/01 06:05:14;;;;;;;11.23;9.18;;;;;;;18.45;nan;100032.56;5026072;28;20498;-77
2021/07/01 06:08:12;;;;;;;10.50;9.35;;;;;;;18.44;nan;100022.81;5016037;28;20042;-77
2021/07/01 06:10:40;;;;;;;10.88;9.77;;;;;;;18.46;nan;100021.81;5021644;28;20036;-77
2021/07/01 06:13:07;;;;;;;10.02;8.95;;;;;;;18.55;nan;100025.88;5023631;28;20690;-76
2021/07/01 06:15:33;;;;;;;12.25;10.55;;;;;;;18.46;nan;100036.97;5021349;28;20120;-77
2021/07/01 06:18:00;;;;;;;12.10;9.45;;;;;;;18.28;nan;100042.22;5021556;28;20496;-77
2021/07/01 06:20:25;;;;;;;11.32;9.18;;;;;;;18.26;nan;100041.44;5023907;28;20124;-76
2021/07/01 06:22:52;;;;;;;11.35;10.15;;;;;;;18.34;nan;100041.97;5033167;28;20108;-76
2021/07/01 06:25:18;;;;;;;10.30;8.73;;;;;;;18.44;nan;100029.00;5022220;28;20053;-76
2021/07/01 06:27:43;;;;;;;11.07;9.90;;;;;;;18.38;nan;100043.53;5020634;28;20425;-77
2021/07/01 06:30:18;;;;;;;12.18;10.35;;;;;;;18.43;nan;100048.66;5022374;28;20037;-77
2021/07/01 06:32:46;;;;;;;11.48;9.77;;;;;;;18.32;nan;100045.63;5023086;28;20060;-77
2021/07/01 06:35:16;;;;;;;10.90;9.70;;;;;;;18.41;nan;100047.88;5020748;28;20053;-77
2021/07/01 06:37:43;;;;;;;13.40;11.35;;;;;;;18.40;nan;100057.69;5019249;28;20061;-76
2021/07/01 06:40:31;;;;;;;12.10;10.48;;;;;;;18.42;nan;100056.75;5022915;28;20051;-77
2021/07/01 06:43:23;;;;;;;12.60;10.90;;;;;;;18.49;nan;100052.84;5007130;28;20528;-77
2021/07/01 06:46:09;;;;;;;11.48;10.23;;;;;;;18.40;nan;100062.19;5020564;28;20045;-77
2021/07/01 06:48:54;;;;;;;12.82;10.23;;;;;;;18.42;nan;100067.44;5020874;28;20252;-77
2021/07/01 06:51:49;;;;;;;12.50;9.85;;;;;;;18.48;nan;100070.69;5004228;28;20049;-77
2021/07/01 06:54:35;;;;;;;12.02;10.00;;;;;;;18.50;nan;100065.28;5026617;28;20044;-77
2021/07/01 06:57:21;;;;;;;12.25;10.95;;;;;;;18.60;nan;100074.59;5022601;28;20038;-77
2021/07/01 06:59:47;;;;;;;13.75;10.98;;;;;;;18.60;nan;100066.56;5020550;28;20164;-77
2021/07/01 07:02:13;;;;;;;13.65;11.20;;;;;;;18.65;nan;100075.25;5021694;28;20041;-77
2021/07/01 07:04:40;;;;;;;13.48;11.68;;;;;;;18.49;nan;100075.09;5022249;28;20400;-77
2021/07/01 07:07:06;;;;;;;14.88;11.73;;;;;;;18.43;nan;100072.72;5018735;28;20042;-77
2021/07/01 07:09:31;;;;;;;13.15;10.73;;;;;;;18.50;nan;100076.84;5021386;28;20073;-77
2021/07/01 07:11:57;;;;;;;16.27;10.82;;;;;;;18.64;nan;100073.53;5022168;28;20068;-77
2021/07/01 07:14:22;;;;;;;14.80;11.73;;;;;;;18.81;nan;100079.00;5019613;28;20167;-77
2021/07/01 07:16:48;;;;;;;13.35;10.63;;;;;;;18.88;nan;100086.72;5022018;28;20411;-77
2021/07/01 07:19:15;;;;;;;16.67;12.00;;;;;;;18.81;nan;100076.31;5022262;28;20049;-77
2021/07/01 07:21:51;;;;;;;16.10;12.85;;;;;;;18.94;nan;100086.41;5019113;28;20029;-77
2021/07/01 07:24:17;;;;;;;18.63;13.88;;;;;;;19.09;nan;100083.00;5019113;28;20040;-77
2021/07/01 07:26:48;;;;;;;14.55;12.43;;;;;;;19.04;nan;100083.22;5034713;28;20117;-77
2021/07/01 07:29:15;;;;;;;13.15;11.75;;;;;;;19.18;nan;100093.25;5021485;28;20033;-77
2021/07/01 07:31:42;;;;;;;13.63;12.05;;;;;;;19.26;nan;100082.19;5022772;28;20029;-77
2021/07/01 07:34:08;;;;;;;14.60;12.05;;;;;;;19.30;nan;100098.94;5020727;28;20038;-77
2021/07/01 07:36:34;;;;;;;13.70;11.93;;;;;;;19.18;nan;100100.44;5021520;28;20094;-77
2021/07/01 07:39:00;;;;;;;14.18;11.60;;;;;;;19.10;nan;100091.88;5017971;28;20060;-77
2021/07/01 07:41:26;;;;;;;15.13;11.43;;;;;;;19.00;nan;100091.47;5022512;28;20049;-77
2021/07/01 07:43:53;;;;;;;13.98;11.57;;;;;;;18.98;nan;100098.69;5021813;28;20044;-77
2021/07/01 07:46:22;;;;;;;9.75;8.13;;;;;;;18.96;nan;100090.75;5019935;28;20045;-77
2021/07/01 07:48:49;;;;;;;8.52;4.80;;;;;;;18.80;nan;100109.31;5022387;28;20531;-77
2021/07/01 07:51:17;;;;;;;2.30;1.50;;;;;;;18.49;nan;100098.28;5021803;28;20057;-77
2021/07/01 07:53:53;;;;;;;2.47;1.50;;;;;;;18.24;nan;100102.06;5019828;28;20030;-77
2021/07/01 07:56:38;;;;;;;2.13;1.55;;;;;;;18.10;nan;100104.47;5021401;28;20579;-77
2021/07/01 07:59:26;;;;;;;;;;;;;;;;;;;;;
2021/07/01 08:02:04;;;;;;;4.30;2.30;;;;;;;18.00;nan;100100.47;5018938;28;20038;-77
2021/07/01 08:04:34;;;;;;;3.95;1.85;;;;;;;18.06;nan;100102.88;5021206;28;20044;-77
2021/07/01 08:07:02;;;;;;;3.25;2.05;;;;;;;18.12;nan;100091.91;5019483;28;20041;-77
2021/07/01 08:09:28;;;;;;;4.65;2.50;;;;;;;17.86;nan;100096.59;5039814;28;20456;-77
2021/07/01 08:11:55;;;;;;;5.15;2.97;;;;;;;17.67;nan;100108.97;5025831;28;20044;-77
2021/07/01 08:14:23;;;;;;;5.30;4.00;;;;;;;17.44;nan;100112.59;5022597;28;20037;-77
2021/07/01 08:16:48;;;;;;;8.27;4.97;;;;;;;17.13;nan;100115.63;5023698;28;20084;-76
2021/07/01 08:19:14;;;;;;;5.88;4.53;;;;;;;17.17;nan;100110.13;5025339;28;20081;-76
2021/07/01 08:21:40;;;;;;;6.43;5.20;;;;;;;17.37;nan;100109.31;5022819;28;20040;-76
2021/07/01 08:24:07;;;;;;;5.80;4.65;;;;;;;17.52;nan;100100.66;5023662;28;20041;-76
2021/07/01 08:26:33;;;;;;;6.55;5.05;;;;;;;17.58;nan;100109.34;5025361;28;20061;-76
2021/07/01 08:29:00;;;;;;;6.60;4.80;;;;;;;17.74;nan;100108.66;5022798;28;20448;-76
2021/07/01 08:31:29;;;;;;;8.55;6.53;;;;;;;17.83;nan;100122.56;5038996;28;20044;-76
2021/07/01 08:33:57;;;;;;;10.07;6.40;;;;;;;17.90;nan;100114.22;5025167;28;20450;-76
2021/07/01 08:36:25;;;;;;;10.10;7.53;;;;;;;17.98;nan;100115.72;5021578;28;20054;-76
2021/07/01 08:38:56;;;;;;;8.93;7.35;;;;;;;18.14;nan;100119.44;5027798;28;20033;-77
2021/07/01 08:41:24;;;;;;;12.05;8.52;;;;;;;18.34;nan;100108.75;5021800;28;20037;-77
2021/07/01 08:43:53;;;;;;;12.10;8.30;;;;;;;18.67;nan;100110.78;5023009;28;20421;-77
2021/07/01 08:46:26;;;;;;;9.45;7.78;;;;;;;19.07;nan;100108.09;5024688;28;20075;-77
2021/07/01 08:49:05;;;;;;;8.32;7.32;;;;;;;19.21;nan;100121.69;5024863;28;20523;-77
2021/07/01 08:51:43;;;;;;;9.10;6.95;;;;;;;19.43;nan;100111.63;5039109;28;20121;-77
2021/07/01 08:54:36;;;;;;;8.38;6.43;;;;;;;19.66;nan;100113.22;5022566;28;20113;-77
2021/07/01 08:57:04;;;;;;;8.07;6.78;;;;;;;20.05;nan;100112.13;5039047;28;20512;-77
2021/07/01 08:59:42;;;;;;;8.50;6.38;;;;;;;20.62;nan;100110.91;5026546;28;20033;-77
2021/07/01 09:02:10;;;;;;;6.95;6.10;;;;;;;20.78;nan;100106.47;5036582;28;20503;-77
2021/07/01 09:04:50;;;;;;;9.35;6.05;;;;;;;20.40;nan;100117.41;5023585;28;20033;-77
2021/07/01 09:07:26;;;;;;;6.63;5.50;;;;;;;20.38;nan;100113.94;5040139;28;20030;-77
2021/07/01 09:09:57;;;;;;;6.03;5.35;;;;;;;19.79;nan;100110.78;5023922;28;20026;-77
2021/07/01 09:12:25;;;;;;;9.95;6.53;;;;;;;19.55;nan;100125.38;5037299;28;20038;-77
2021/07/01 09:15:03;;;;;;;7.22;5.75;;;;;;;19.33;nan;100112.16;5022927;28;20408;-77
2021/07/01 09:17:30;;;;;;;7.70;5.90;;;;;;;19.49;nan;100121.16;5021255;28;20069;-77
2021/07/01 09:19:57;;;;;;;9.55;6.85;;;;;;;19.61;nan;100125.91;5021925;28;20087;-77
2021/07/01 09:22:24;;;;;;;8.43;7.32;;;;;;;20.00;nan;100122.19;5024590;28;20160;-77
2021/07/01 09:24:51;;;;;;;8.80;6.10;;;;;;;20.24;nan;100124.53;5037884;28;20053;-77
2021/07/01 09:27:17;;;;;;;8.85;6.38;;;;;;;20.17;nan;100149.91;5022765;28;20105;-77
2021/07/01 09:29:46;;;;;;;9.48;5.88;;;;;;;19.87;nan;100131.81;5024982;28;20041;-77
2021/07/01 09:32:13;;;;;;;6.93;5.25;;;;;;;19.49;nan;100127.41;5022846;28;20044;-77
2021/07/01 09:34:40;;;;;;;11.68;6.28;;;;;;;19.35;nan;100145.06;5021877;28;20034;-77
2021/07/01 09:37:06;;;;;;;6.45;5.00;;;;;;;19.24;nan;100133.09;5021874;28;20121;-77
2021/07/01 09:39:32;;;;;;;6.82;4.85;;;;;;;19.33;nan;100125.53;5023059;28;20080;-77
2021/07/01 09:42:01;;;;;;;7.60;5.05;;;;;;;19.85;nan;100128.34;5035800;28;20030;-77
2021/07/01 09:44:28;;;;;;;6.22;5.18;;;;;;;20.30;nan;100129.56;5021716;28;20042;-77
2021/07/01 09:46:57;;;;;;;5.63;4.32;;;;;;;20.50;nan;100140.09;5037734;28;20416;-77
2021/07/01 09:49:29;;;;;;;6.03;4.22;;;;;;;20.70;nan;100122.13;5024653;28;20072;-77
2021/07/01 09:52:00;;;;;;;5.57;4.57;;;;;;;20.79;nan;100135.00;5026141;28;20037;-77
2021/07/01 09:54:28;;;;;;;5.70;4.30;;;;;;;20.94;nan;100142.22;5026510;28;20030;-77
2021/07/01 09:56:56;;;;;;;6.22;4.90;;;;;;;20.26;nan;100154.81;5022856;28;20042;-77
2021/07/01 09:59:52;;;;;;;6.47;4.70;;;;;;;19.78;nan;100142.97;5021251;28;20037;-77
2021/07/01 10:02:22;;;;;;;5.93;4.18;;;;;;;20.06;nan;100140.63;5029821;28;20088;-77
2021/07/01 10:04:49;;;;;;;6.20;3.90;;;;;;;20.20;nan;100133.69;5040591;28;20038;-77
2021/07/01 10:07:17;;;;;;;5.68;3.97;;;;;;;20.05;nan;100146.94;5023368;28;20496;-77
2021/07/01 10:09:45;;;;;;;3.85;2.75;;;;;;;20.05;nan;100151.44;5035131;28;20034;-77
2021/07/01 10:12:20;;;;;;;4.65;2.95;;;;;;;19.86;nan;100144.34;5023877;28;20037;-77
2021/07/01 10:14:47;;;;;;;3.60;2.83;;;;;;;20.01;nan;100149.84;5022761;28;20481;-77
2021/07/01 10:17:15;;;;;;;3.40;2.50;;;;;;;20.30;nan;100157.25;5021728;28;20049;-77
2021/07/01 10:19:41;;;;;;;5.38;2.30;;;;;;;20.23;nan;100160.34;5024927;28;20044;-77
2021/07/01 10:22:08;;;;;;;4.22;2.80;;;;;;;19.98;nan;100158.91;5039296;28;20502;-77
2021/07/01 10:24:50;;;;;;;4.13;2.60;;;;;;;19.87;nan;100164.81;5021455;28;20514;-77
2021/07/01 10:27:36;;;;;;;3.88;2.40;;;;;;;20.04;nan;100157.72;5022526;28;20030;-77
2021/07/01 10:30:12;;;;;;;3.03;2.13;;;;;;;20.41;nan;100156.69;5021864;28;20042;-77
2021/07/01 10:32:48;;;;;;;5.22;2.03;;;;;;;20.98;nan;100159.00;5022719;28;20113;-77
2021/07/01 10:35:20;;;;;;;5.10;2.75;;;;;;;21.23;nan;100163.88;5022712;28;20046;-77
2021/07/01 10:38:04;;;;;;;;;;;;;;;21.31;nan;100164.31;5022109;28;20084;-77
2021/07/01 10:40:32;;;;;;;4.85;3.00;;;;;;;21.40;nan;100168.31;5021413;28;19917;-77
2021/07/01 10:42:58;;;;;;;5.25;2.95;;;;;;;21.37;nan;100182.75;5021950;28;20041;-77
2021/07/01 10:45:24;;;;;;;5.15;2.92;;;;;;;21.55;nan;100163.91;5021338;28;20396;-77
2021/07/01 10:47:50;;;;;;;6.10;2.85;;;;;;;21.53;nan;100161.28;5023370;28;20061;-77
2021/07/01 10:50:19;;;;;;;5.13;3.08;;;;;;;21.99;nan;100157.75;5021883;28;20064;-77
2021/07/01 10:52:45;;;;;;;5.35;3.10;;;;;;;22.36;nan;100144.81;5022677;28;20042;-77
2021/07/01 10:55:11;;;;;;;3.80;2.80;;;;;;;22.61;nan;100146.84;5024188;28;20034;-77
2021/07/01 10:57:47;;;;;;;5.50;3.03;;;;;;;22.95;nan;100145.56;5022611;28;20040;-77
2021/07/01 11:00:12;;;;;;;4.13;2.90;;;;;;;22.72;nan;100145.22;5020565;28;20493;-77
2021/07/01 11:02:45;;;;;;;3.42;2.50;;;;;;;23.04;nan;100152.25;5024338;28;20063;-77
2021/07/01 11:05:11;;;;;;;3.10;2.33;;;;;;;23.19;nan;100143.19;5024554;28;20195;-77
2021/07/01 11:07:41;;;;;;;4.63;3.25;;;;;;;23.04;nan;100157.63;5022224;28;20080;-77
2021/07/01 11:10:07;;;;;;;4.78;2.65;;;;;;;22.91;nan;100147.59;5023057;28;20057;-77
2021/07/01 11:12:44;;;;;;;5.13;2.75;;;;;;;22.85;nan;100156.06;5025214;28;20037;-77
2021/07/01 11:15:09;;;;;;;3.47;2.47;;;;;;;22.54;nan;100147.22;5023529;28;20048;-77
2021/07/01 11:17:36;;;;;;;4.70;2.63;;;;;;;22.30;nan;100157.66;5022219;28;20484;-77
2021/07/01 11:20:13;;;;;;;4.95;2.97;;;;;;;21.70;nan;100156.78;5038716;28;20084;-77
2021/07/01 11:22:47;;;;;;;3.75;2.40;;;;;;;21.69;nan;100144.28;5024581;28;20498;-77
2021/07/01 11:25:35;;;;;;;6.70;2.65;;;;;;;21.65;nan;100163.28;5037765;23;20419;-77
2021/07/01 11:28:14;;;;;;;4.88;2.75;;;;;;;21.61;nan;100168.91;5041715;28;20549;-77
2021/07/01 11:30:54;;;;;;;5.82;2.65;;;;;;;21.52;nan;100178.38;5042122;28;20079;-77
2021/07/01 11:33:20;;;;;;;6.35;2.58;;;;;;;21.59;nan;100169.00;5038489;28;20080;-77
2021/07/01 11:35:47;;;;;;;3.50;2.28;;;;;;;21.68;nan;100172.97;5040372;28;20060;-77
2021/07/01 11:38:30;;;;;;;4.18;2.35;;;;;;;21.42;nan;100178.00;5042929;28;20395;-77
2021/07/01 11:40:59;;;;;;;4.45;2.20;;;;;;;21.25;nan;100186.13;5042707;28;20029;-77
2021/07/01 11:43:25;;;;;;;4.85;2.45;;;;;;;21.14;nan;100188.53;5043512;28;20116;-77
2021/07/01 11:45:52;;;;;;;3.92;2.60;;;;;;;20.97;nan;100200.22;5043712;28;20060;-77
2021/07/01 11:48:22;;;;;;;4.35;2.70;;;;;;;20.91;nan;100200.56;5046357;28;20040;-77
2021/07/01 11:50:49;;;;;;;5.28;2.50;;;;;;;21.21;nan;100195.31;5029002;28;20033;-77
2021/07/01 11:53:16;;;;;;;8.02;2.80;;;;;;;21.65;nan;100191.97;5043420;28;20132;-77
2021/07/01 11:55:44;;;;;;;5.68;2.50;;;;;;;22.00;nan;100187.19;5044939;28;20483;-77
2021/07/01 11:58:11;;;;;;;5.13;2.30;;;;;;;22.24;nan;100184.94;5046383;28;20483;-77